Time;durP1;ratioP1;P1;durP2;ratioP2;P2;SDS_P1;SDS_P2;PMS_P1;PMS_P2;Temp;Humidity;BMP_temperature;BMP_pressure;BME280_temperature;BME280_humidity;BME280_pressure;Samples;Min_cycle;Max_cycle;Signal;HPM_P1;HPM_P2
2022/05/02 00:01:35;;;;;;;16.45;10.32;;;11.20;81.00;;;;;;5000531;28;20106;-14
2022/05/02 00:04:00;;;;;;;15.13;10.02;;;11.20;81.00;;;;;;5000163;28;20034;-14
2022/05/02 00:06:26;;;;;;;20.48;14.07;;;11.20;80.90;;;;;;4999937;28;20433;-14
2022/05/02 00:08:52;;;;;;;15.23;10.30;;;11.20;81.30;;;;;;4999867;28;20026;-15
2022/05/02 00:11:18;;;;;;;14.95;10.05;;;11.20;81.30;;;;;;4999764;28;20022;-15
2022/05/02 00:13:44;;;;;;;15.48;10.27;;;11.20;81.40;;;;;;4999717;28;20023;-16
2022/05/02 00:16:10;;;;;;;14.20;9.82;;;11.20;81.40;;;;;;4999827;28;20026;-15
2022/05/02 00:18:36;;;;;;;15.98;9.82;;;11.20;81.20;;;;;;4999674;28;20084;-16
2022/05/02 00:21:02;;;;;;;15.32;10.48;;;11.30;81.40;;;;;;5000065;28;20022;-14
2022/05/02 00:23:29;;;;;;;14.75;9.88;;;11.20;81.40;;;;;;4999670;28;20441;-17
2022/05/02 00:25:55;;;;;;;15.57;10.65;;;11.30;81.20;;;;;;4999703;28;20493;-15
2022/05/02 00:28:21;;;;;;;14.95;10.07;;;11.30;81.00;;;;;;4999449;28;20133;-14
2022/05/02 00:30:47;;;;;;;17.45;10.68;;;11.40;81.00;;;;;;4999654;28;20066;-16
2022/05/02 00:33:13;;;;;;;14.70;9.95;;;11.40;81.00;;;;;;4999645;28;20026;-16
2022/05/02 00:35:39;;;;;;;15.90;10.65;;;11.40;81.00;;;;;;4999750;28;20050;-14
2022/05/02 00:38:05;;;;;;;15.70;10.13;;;11.40;81.00;;;;;;4998390;28;20050;-15
2022/05/02 00:40:32;;;;;;;13.40;9.25;;;11.50;80.80;;;;;;4995525;28;20390;-15
2022/05/02 00:42:58;;;;;;;12.93;9.10;;;11.50;80.90;;;;;;4996664;28;20035;-12
2022/05/02 00:45:24;;;;;;;15.80;9.63;;;11.60;80.70;;;;;;4996444;28;20069;-13
2022/05/02 00:47:57;;;;;;;13.80;8.45;;;11.60;80.90;;;;;;4996454;28;20088;-13
2022/05/02 00:50:34;;;;;;;16.65;9.93;;;11.60;80.70;;;;;;4997115;28;20027;-14
2022/05/02 00:53:05;;;;;;;14.55;10.10;;;11.60;80.70;;;;;;4996352;28;20041;-15
2022/05/02 00:55:32;;;;;;;16.00;10.60;;;11.70;80.50;;;;;;4996601;28;20096;-15
2022/05/02 00:58:00;;;;;;;17.25;11.60;;;11.70;80.30;;;;;;4996505;28;20060;-16
2022/05/02 01:00:28;;;;;;;18.08;11.27;;;11.70;80.80;;;;;;4996172;28;20030;-15
2022/05/02 01:02:54;;;;;;;14.27;9.65;;;11.70;80.50;;;;;;4996050;28;20039;-16
2022/05/02 01:05:20;;;;;;;13.25;8.68;;;11.70;80.60;;;;;;4996131;28;20117;-16
2022/05/02 01:07:46;;;;;;;13.75;9.50;;;11.70;80.40;;;;;;4996017;28;20030;-14
2022/05/02 01:10:17;;;;;;;12.77;8.52;;;11.70;80.60;;;;;;4994682;28;20045;-15
2022/05/02 01:12:47;;;;;;;12.73;8.30;;;11.60;80.30;;;;;;4996350;28;20050;-14
2022/05/02 01:15:16;;;;;;;14.93;8.55;;;11.60;80.60;;;;;;4996246;28;20030;-14
2022/05/02 01:17:43;;;;;;;12.55;7.63;;;11.60;81.00;;;;;;4996270;28;20044;-17
2022/05/02 01:20:14;;;;;;;17.30;10.80;;;11.60;80.70;;;;;;4995874;28;20057;-14
2022/05/02 01:22:42;;;;;;;16.40;11.02;;;11.60;82.60;;;;;;4995914;28;20118;-12
2022/05/02 01:25:10;;;;;;;13.43;8.82;;;11.50;84.10;;;;;;4995681;28;20485;-16
2022/05/02 01:27:36;;;;;;;14.07;9.45;;;11.50;82.00;;;;;;4995659;28;20089;-15
2022/05/02 01:30:02;;;;;;;14.88;8.60;;;11.50;82.20;;;;;;4995902;28;20038;-15
2022/05/02 01:32:28;;;;;;;14.10;10.02;;;11.50;82.00;;;;;;4995430;28;20540;-15
2022/05/02 01:34:54;;;;;;;15.85;9.60;;;11.50;81.70;;;;;;4995879;28;20026;-12
2022/05/02 01:37:20;;;;;;;14.65;9.48;;;11.50;81.50;;;;;;4995944;28;20113;-15
2022/05/02 01:39:46;;;;;;;13.52;9.40;;;11.50;81.60;;;;;;4995829;28;20073;-13
2022/05/02 01:42:12;;;;;;;13.07;8.73;;;11.60;81.60;;;;;;4995719;28;20131;-13
2022/05/02 01:44:39;;;;;;;16.08;10.00;;;11.60;81.60;;;;;;4995232;28;20065;-14
2022/05/02 01:47:07;;;;;;;17.73;11.55;;;11.50;81.60;;;;;;4995638;28;20069;-14
2022/05/02 01:49:33;;;;;;;16.88;10.73;;;11.50;81.60;;;;;;4995384;28;20109;-15
2022/05/02 01:51:59;;;;;;;16.88;10.88;;;11.50;81.60;;;;;;4995078;28;20109;-14
2022/05/02 01:54:26;;;;;;;16.65;9.93;;;11.50;81.10;;;;;;4994963;28;20027;-14
2022/05/02 01:56:51;;;;;;;15.90;10.98;;;11.60;82.00;;;;;;4995133;28;20022;-16
2022/05/02 01:59:17;;;;;;;13.63;9.10;;;11.50;81.50;;;;;;4995296;28;20023;-14
2022/05/02 02:01:43;;;;;;;17.10;10.63;;;11.50;81.50;;;;;;4995036;28;20030;-13
2022/05/02 02:06:54;;;;;;;21.83;12.10;;;11.60;81.10;;;;;;4995348;28;20049;-14
2022/05/02 02:09:20;;;;;;;13.00;8.73;;;11.60;82.40;;;;;;4995296;28;20033;-13
2022/05/02 02:11:46;;;;;;;15.32;10.65;;;11.50;81.60;;;;;;4995054;28;20029;-15
2022/05/02 02:14:12;;;;;;;19.02;12.20;;;11.50;81.40;;;;;;4994745;28;20022;-14
2022/05/02 02:16:38;;;;;;;15.82;10.25;;;11.50;82.30;;;;;;4994769;28;20022;-14
2022/05/02 02:19:04;;;;;;;12.55;8.15;;;11.50;81.90;;;;;;4994643;28;20041;-14
2022/05/02 02:21:32;;;;;;;11.32;8.50;;;11.40;81.60;;;;;;4994714;28;20142;-15
2022/05/02 02:23:58;;;;;;;12.38;8.93;;;11.50;81.20;;;;;;4994531;28;20502;-16
2022/05/02 02:26:24;;;;;;;13.45;8.45;;;11.50;81.40;;;;;;4994683;28;20030;-14
2022/05/02 02:28:50;;;;;;;13.30;8.68;;;11.50;81.20;;;;;;4994253;28;20053;-13
2022/05/02 02:31:16;;;;;;;17.23;11.40;;;11.50;81.30;;;;;;4994531;28;20109;-15
2022/05/02 02:33:42;;;;;;;15.80;10.40;;;11.50;81.50;;;;;;4994363;28;20022;-15
2022/05/02 02:36:08;;;;;;;15.38;10.48;;;11.50;81.30;;;;;;4994423;28;20026;-14
2022/05/02 02:38:33;;;;;;;18.85;12.43;;;11.60;81.20;;;;;;4994442;28;20033;-14
2022/05/02 02:41:00;;;;;;;13.65;9.57;;;11.60;81.30;;;;;;4993070;28;20438;-14
2022/05/02 02:43:25;;;;;;;15.57;10.63;;;11.60;81.40;;;;;;4994420;28;20027;-14
2022/05/02 02:45:51;;;;;;;15.90;10.20;;;11.60;81.50;;;;;;4994231;28;20513;-14
2022/05/02 02:48:17;;;;;;;15.25;9.50;;;11.70;81.50;;;;;;4994022;28;20023;-14
2022/05/02 02:50:43;;;;;;;13.60;8.90;;;11.70;81.30;;;;;;4994210;28;20034;-13
2022/05/02 02:53:09;;;;;;;13.05;8.60;;;11.70;81.60;;;;;;4992939;28;20026;-13
2022/05/02 02:55:35;;;;;;;15.20;9.80;;;11.70;81.50;;;;;;4994432;28;20058;-15
2022/05/02 02:58:01;;;;;;;14.88;9.05;;;11.70;81.40;;;;;;4993886;28;20044;-14
2022/05/02 03:00:26;;;;;;;13.63;8.82;;;11.70;81.70;;;;;;4994758;28;20018;-14
2022/05/02 03:02:53;;;;;;;18.52;9.98;;;11.70;81.50;;;;;;4992148;28;20029;-15
2022/05/02 03:08:04;;;;;;;14.80;9.15;;;11.70;81.40;;;;;;4994407;28;20037;-14
2022/05/02 03:10:30;;;;;;;18.65;10.05;;;11.80;81.30;;;;;;4993866;28;20046;-17
2022/05/02 03:12:56;;;;;;;13.75;8.80;;;11.80;81.50;;;;;;4994186;28;20030;-16
2022/05/02 03:15:22;;;;;;;18.48;10.88;;;11.80;81.40;;;;;;4993800;28;20018;-15
2022/05/02 03:17:48;;;;;;;15.75;9.80;;;11.80;81.30;;;;;;4994058;28;20450;-15
2022/05/02 03:20:14;;;;;;;19.60;12.60;;;11.80;81.40;;;;;;4993537;28;20646;-15
2022/05/02 03:22:40;;;;;;;17.25;11.65;;;11.70;81.40;;;;;;4994074;28;20109;-14
2022/05/02 03:25:07;;;;;;;16.90;11.82;;;11.70;81.50;;;;;;4993949;28;20053;-15
2022/05/02 03:27:33;;;;;;;21.33;13.70;;;11.70;81.50;;;;;;4994042;28;20038;-14
2022/05/02 03:29:59;;;;;;;15.65;9.75;;;11.70;81.50;;;;;;4993536;28;20059;-14
2022/05/02 03:32:25;;;;;;;17.20;10.77;;;11.70;81.60;;;;;;4993692;28;20031;-16
2022/05/02 03:34:51;;;;;;;18.50;12.50;;;11.70;81.80;;;;;;4994254;28;20018;-14
2022/05/02 03:37:17;;;;;;;14.95;10.52;;;11.60;82.00;;;;;;4993971;28;20477;-14
2022/05/02 03:39:43;;;;;;;15.32;9.63;;;11.60;81.90;;;;;;4993962;28;20023;-14
2022/05/02 03:42:09;;;;;;;14.38;9.43;;;11.60;82.10;;;;;;4993899;28;20027;-14
2022/05/02 03:44:35;;;;;;;16.50;11.43;;;11.60;82.00;;;;;;4993304;28;20077;-16
2022/05/02 03:47:01;;;;;;;15.00;10.35;;;11.60;82.00;;;;;;4993764;28;20459;-15
2022/05/02 03:49:27;;;;;;;16.70;10.45;;;11.50;82.10;;;;;;4993878;28;20019;-14
2022/05/02 03:51:52;;;;;;;13.90;9.20;;;11.50;82.20;;;;;;4993852;28;20058;-14
2022/05/02 03:54:18;;;;;;;16.42;9.02;;;11.50;82.10;;;;;;4993316;28;20022;-15
2022/05/02 03:56:44;;;;;;;15.85;11.02;;;11.50;82.00;;;;;;4992192;28;20037;-14
2022/05/02 03:59:10;;;;;;;15.68;10.50;;;11.50;82.20;;;;;;4993569;28;20023;-14
2022/05/02 04:01:39;;;;;;;14.88;9.80;;;11.50;82.10;;;;;;4992174;28;20037;-14
2022/05/02 04:04:05;;;;;;;16.13;9.57;;;11.50;82.10;;;;;;4993649;28;20026;-15
2022/05/02 04:06:31;;;;;;;12.63;9.40;;;11.40;82.10;;;;;;4993178;28;20367;-14
2022/05/02 04:08:57;;;;;;;15.00;9.48;;;11.40;82.00;;;;;;4993619;28;20089;-14
2022/05/02 04:11:23;;;;;;;16.25;11.10;;;11.40;82.10;;;;;;4993999;28;20457;-14
2022/05/02 04:13:50;;;;;;;11.15;7.43;;;11.40;82.20;;;;;;4993192;28;20053;-16
2022/05/02 04:16:16;;;;;;;15.18;9.27;;;11.30;82.00;;;;;;4996885;28;20058;-15
2022/05/02 04:18:43;;;;;;;12.93;8.65;;;11.30;82.10;;;;;;4997668;28;20054;-15
2022/05/02 04:21:09;;;;;;;16.85;10.23;;;11.30;82.00;;;;;;4997368;28;20030;-14
2022/05/02 04:23:35;;;;;;;13.63;8.85;;;11.40;81.90;;;;;;4996883;28;20025;-16
2022/05/02 04:29:23;;;;;;;15.50;9.85;;;11.40;81.90;;;;;;4996907;28;20057;-14
2022/05/02 04:31:49;;;;;;;13.73;8.77;;;11.40;82.10;;;;;;4996695;28;20023;-17
2022/05/02 04:34:15;;;;;;;15.10;9.15;;;11.40;82.00;;;;;;4996539;28;20558;-15
2022/05/02 04:36:41;;;;;;;14.68;9.45;;;11.40;81.80;;;;;;4996535;28;20080;-15
2022/05/02 04:39:07;;;;;;;12.23;8.75;;;11.40;81.90;;;;;;4996510;28;20026;-15
2022/05/02 04:41:33;;;;;;;12.10;7.82;;;11.50;82.00;;;;;;4996559;28;20548;-15
2022/05/02 04:43:59;;;;;;;12.25;8.60;;;11.50;81.70;;;;;;4996325;28;20026;-15
2022/05/02 04:46:26;;;;;;;13.45;9.15;;;11.60;81.60;;;;;;4996586;28;20026;-16
2022/05/02 04:48:53;;;;;;;13.88;8.35;;;11.60;81.50;;;;;;4996839;28;20042;-14
2022/05/02 04:51:19;;;;;;;12.52;7.95;;;11.70;81.20;;;;;;4996865;28;20541;-14
2022/05/02 04:53:45;;;;;;;16.30;9.70;;;11.80;81.10;;;;;;4995121;28;20045;-14
2022/05/02 04:56:11;;;;;;;12.48;8.77;;;11.90;81.00;;;;;;4996300;28;20031;-15
2022/05/02 04:58:38;;;;;;;11.18;7.85;;;11.90;80.70;;;;;;4995971;28;20038;-16
2022/05/02 05:01:07;;;;;;;12.95;7.75;;;11.90;80.40;;;;;;4996234;28;20525;-15
2022/05/02 05:03:34;;;;;;;12.68;8.35;;;11.90;80.30;;;;;;4996154;28;20034;-14
2022/05/02 05:05:59;;;;;;;13.13;8.02;;;12.00;80.40;;;;;;4996369;28;20378;-15
2022/05/02 05:08:26;;;;;;;10.68;7.75;;;12.00;80.80;;;;;;4996013;28;20481;-14
2022/05/02 05:11:24;;;;;;;13.98;8.80;;;12.10;80.80;;;;;;4996916;28;20030;-15
2022/05/02 05:17:21;;;;;;;13.70;8.95;;;12.20;80.00;;;;;;4996319;28;20390;-15
2022/05/02 05:19:58;;;;;;;14.80;9.05;;;12.20;79.80;;;;;;4996184;28;20387;-17
2022/05/02 05:22:39;;;;;;;12.80;8.57;;;12.30;79.50;;;;;;4995712;28;20030;-14
2022/05/02 05:25:27;;;;;;;12.27;8.57;;;12.30;79.40;;;;;;4995601;28;20027;-16
2022/05/02 05:28:18;;;;;;;15.95;10.27;;;12.40;79.40;;;;;;4995572;28;20035;-14
2022/05/02 05:30:48;;;;;;;13.88;9.13;;;12.40;79.40;;;;;;4995714;28;20032;-15
2022/05/02 05:33:16;;;;;;;11.77;8.35;;;12.50;79.40;;;;;;4995939;28;20469;-16
2022/05/02 05:35:51;;;;;;;14.05;10.13;;;12.50;79.30;;;;;;4995940;28;20033;-17
2022/05/02 05:38:38;;;;;;;11.98;7.90;;;12.50;79.30;;;;;;4995445;28;20038;-13
2022/05/02 05:41:48;;;;;;;14.18;9.43;;;12.70;79.30;;;;;;4995579;28;20030;-15
2022/05/02 05:44:29;;;;;;;13.43;8.93;;;12.70;79.90;;;;;;4995592;28;20043;-14
2022/05/02 05:46:55;;;;;;;12.60;8.40;;;12.80;79.70;;;;;;4995622;28;20038;-16
2022/05/02 05:49:24;;;;;;;14.45;10.65;;;12.90;79.70;;;;;;4995356;28;20034;-14
2022/05/02 05:52:19;;;;;;;15.25;9.75;;;12.90;79.10;;;;;;4995218;28;20034;-15
2022/05/02 05:54:45;;;;;;;15.13;10.00;;;13.10;79.00;;;;;;4984782;28;20039;-15
2022/05/02 05:57:20;;;;;;;12.52;9.00;;;13.20;78.20;;;;;;4995116;28;20034;-15
2022/05/02 06:00:04;;;;;;;15.75;9.40;;;13.30;78.30;;;;;;4995351;28;20027;-14
2022/05/02 06:02:59;;;;;;;14.52;9.65;;;13.50;78.10;;;;;;4995116;28;20497;-15
2022/05/02 06:05:26;;;;;;;12.32;8.93;;;13.70;77.70;;;;;;4995014;28;20023;-15
2022/05/02 06:07:52;;;;;;;13.57;9.40;;;13.90;76.80;;;;;;4994989;28;20573;-14
2022/05/02 06:10:19;;;;;;;21.95;15.20;;;14.00;76.70;;;;;;4994821;28;20019;-16
2022/05/02 06:12:46;;;;;;;14.98;10.63;;;14.10;76.60;;;;;;4995072;28;20385;-14
2022/05/02 06:20:45;;;;;;;15.07;9.70;;;14.40;75.40;;;;;;4995120;28;20037;-16
2022/05/02 06:23:13;;;;;;;15.93;11.98;;;14.50;74.50;;;;;;4994609;28;20109;-16
2022/05/02 06:25:41;;;;;;;13.43;9.20;;;14.60;74.50;;;;;;4994641;28;20497;-15
2022/05/02 06:28:08;;;;;;;11.75;9.05;;;14.70;74.50;;;;;;4994509;28;20388;-16
2022/05/02 06:30:37;;;;;;;13.88;8.90;;;14.80;74.80;;;;;;4994264;28;20030;-15
2022/05/02 06:33:11;;;;;;;12.75;9.45;;;15.00;74.40;;;;;;4994496;28;20030;-15
2022/05/02 06:36:11;;;;;;;13.20;9.18;;;15.20;73.60;;;;;;4994557;28;20030;-13
2022/05/02 06:38:55;;;;;;;15.43;10.98;;;15.40;73.30;;;;;;4993792;28;20026;-16
2022/05/02 06:41:41;;;;;;;14.02;10.05;;;15.70;72.80;;;;;;4994391;28;20146;-14
2022/05/02 06:44:17;;;;;;;18.63;14.57;;;16.10;72.20;;;;;;4994490;28;20109;-14
2022/05/02 06:47:32;;;;;;;15.10;9.30;;;16.50;71.10;;;;;;4994617;28;20117;-15
2022/05/02 06:50:01;;;;;;;;;;;16.90;68.30;;;;;;4908322;29;20106;-14
2022/05/02 06:52:54;;;;;;;14.70;9.27;;;17.50;67.30;;;;;;4934318;29;20014;-15
2022/05/02 06:56:08;;;;;;;12.27;7.82;;;17.90;66.10;;;;;;4934036;29;20027;-14
2022/05/02 06:58:49;;;;;;;10.32;7.00;;;18.40;63.30;;;;;;4877373;29;20044;-16
2022/05/02 07:01:30;;;;;;;13.32;8.10;;;18.80;64.20;;;;;;4877892;29;20078;-16
2022/05/02 07:04:34;;;;;;;11.10;7.50;;;19.10;61.00;;;;;;4877818;29;20049;-14
2022/05/02 07:07:21;;;;;;;11.27;7.47;;;19.60;61.90;;;;;;4822621;29;20176;-14
2022/05/02 07:09:52;;;;;;;9.35;6.80;;;19.80;58.90;;;;;;4822706;29;20035;-15
2022/05/02 07:12:22;;;;;;;9.70;7.13;;;19.60;57.80;;;;;;4822496;29;20525;-14
2022/05/02 07:15:04;;;;;;;9.70;6.78;;;19.40;60.60;;;;;;4822531;29;20130;-13
2022/05/02 07:18:03;;;;;;;9.55;7.00;;;19.60;60.80;;;;;;4822497;29;20035;-14
2022/05/02 07:20:35;;;;;;;9.85;7.30;;;19.60;59.50;;;;;;4822285;29;20406;-15
2022/05/02 07:23:10;;;;;;;9.98;6.80;;;19.50;59.90;;;;;;4822432;29;20066;-14
2022/05/02 07:25:43;;;;;;;10.00;7.90;;;19.40;61.30;;;;;;4823092;29;20046;-14
2022/05/02 07:28:11;;;;;;;10.63;7.68;;;19.40;61.40;;;;;;4877430;29;20051;-14
2022/05/02 07:30:39;;;;;;;9.82;7.22;;;19.30;60.70;;;;;;4877154;29;20040;-14
2022/05/02 07:33:10;;;;;;;8.63;6.00;;;19.20;61.20;;;;;;4861719;29;20068;-13
2022/05/02 07:35:37;;;;;;;9.00;5.93;;;19.30;59.80;;;;;;4911199;29;20530;-15
2022/05/02 07:38:04;;;;;;;9.40;6.22;;;19.20;59.50;;;;;;4933871;29;20032;-13
2022/05/02 07:40:31;;;;;;;8.57;6.10;;;19.10;58.20;;;;;;4933715;29;20032;-13
2022/05/02 07:43:00;;;;;;;10.10;5.75;;;19.10;59.80;;;;;;4942843;28;20038;-14
2022/05/02 07:45:30;;;;;;;8.15;5.80;;;19.00;59.20;;;;;;4992577;28;20034;-14
2022/05/02 07:48:03;;;;;;;10.13;6.13;;;18.90;59.40;;;;;;4993541;28;20046;-13
2022/05/02 07:50:31;;;;;;;9.63;6.30;;;18.90;58.90;;;;;;4997464;28;20478;-15
2022/05/02 07:52:58;;;;;;;10.20;7.03;;;18.90;59.70;;;;;;4997405;28;20073;-15
2022/05/02 07:55:24;;;;;;;9.15;5.97;;;18.90;59.10;;;;;;4997729;28;20386;-15
2022/05/02 07:57:55;;;;;;;10.45;7.10;;;18.90;59.70;;;;;;4997658;28;20046;-15
2022/05/02 08:00:22;;;;;;;8.32;6.15;;;19.00;59.40;;;;;;4997119;28;20038;-13
2022/05/02 08:02:48;;;;;;;8.20;5.95;;;19.20;59.80;;;;;;4997261;28;20431;-15
2022/05/02 08:05:20;;;;;;;8.65;6.00;;;19.60;58.70;;;;;;4997163;28;20022;-13
2022/05/02 08:07:46;;;;;;;11.68;6.53;;;20.00;57.60;;;;;;4997562;28;20030;-13
2022/05/02 08:10:38;;;;;;;13.65;6.68;;;20.50;55.90;;;;;;4997498;28;20109;-15
2022/05/02 08:13:32;;;;;;;9.52;6.85;;;20.90;53.10;;;;;;4997193;28;20101;-14
2022/05/02 08:16:27;;;;;;;9.05;6.22;;;21.20;52.90;;;;;;4997061;28;20447;-16
2022/05/02 08:19:03;;;;;;;9.43;6.85;;;21.10;52.10;;;;;;4993520;28;20390;-13
2022/05/02 08:21:44;;;;;;;7.03;5.65;;;21.10;52.30;;;;;;4997017;28;20129;-14
2022/05/02 08:28:02;;;;;;;9.23;5.90;;;21.40;51.50;;;;;;4944246;28;20117;-14
2022/05/02 08:30:34;;;;;;;7.90;5.57;;;21.70;51.70;;;;;;4996597;28;20525;-16
2022/05/02 08:33:06;;;;;;;6.70;5.30;;;21.70;50.50;;;;;;4997135;28;20030;-12
2022/05/02 08:35:39;;;;;;;9.05;4.75;;;21.50;50.40;;;;;;4996803;28;20089;-13
2022/05/02 08:38:32;;;;;;;7.05;5.13;;;21.40;50.40;;;;;;4996747;28;20557;-13
2022/05/02 08:41:20;;;;;;;5.97;4.50;;;21.40;50.50;;;;;;4997348;28;20029;-13
2022/05/02 08:44:04;;;;;;;5.82;3.90;;;21.30;50.80;;;;;;4996785;28;20057;-13
2022/05/02 08:46:49;;;;;;;6.03;4.38;;;21.40;50.70;;;;;;4996527;28;20026;-14
2022/05/02 08:49:32;;;;;;;10.60;4.85;;;21.50;50.90;;;;;;4997295;28;20035;-14
2022/05/02 08:52:01;;;;;;;6.50;4.85;;;21.80;50.30;;;;;;4996455;28;20030;-13
2022/05/02 08:55:07;;;;;;;6.65;4.50;;;21.90;49.80;;;;;;4996547;28;20062;-13
2022/05/02 08:57:39;;;;;;;4.63;4.13;;;21.70;49.60;;;;;;4996629;28;20030;-13
2022/05/02 09:00:12;;;;;;;5.75;4.35;;;21.70;49.70;;;;;;4995720;28;20390;-14
2022/05/02 09:02:55;;;;;;;5.97;4.60;;;21.90;49.90;;;;;;4996992;28;20030;-15
2022/05/02 09:05:50;;;;;;;6.20;4.43;;;21.90;48.30;;;;;;4996795;28;20081;-13
2022/05/02 09:08:38;;;;;;;6.80;4.50;;;21.70;47.10;;;;;;4996018;28;20027;-13
2022/05/02 09:11:35;;;;;;;5.28;4.05;;;21.40;48.60;;;;;;4996357;28;20018;-14
2022/05/02 09:14:19;;;;;;;5.85;4.00;;;21.10;48.60;;;;;;4995905;28;20034;-13
2022/05/02 09:17:17;;;;;;;5.07;3.67;;;21.10;50.40;;;;;;4996278;28;20034;-15
2022/05/02 09:20:12;;;;;;;4.93;3.42;;;21.30;50.30;;;;;;4996290;28;20056;-14
2022/05/02 09:23:02;;;;;;;5.10;3.95;;;21.50;46.80;;;;;;4995782;28;20030;-13
2022/05/02 09:25:34;;;;;;;6.10;3.70;;;21.70;47.90;;;;;;4995721;28;20045;-13
2022/05/02 09:28:20;;;;;;;4.45;3.30;;;21.90;49.10;;;;;;4995641;28;20054;-12
2022/05/02 09:31:11;;;;;;;5.15;3.63;;;22.40;46.80;;;;;;4995936;28;20035;-15
2022/05/02 09:33:49;;;;;;;4.57;3.42;;;22.60;45.90;;;;;;4996013;28;20034;-13
2022/05/02 09:36:29;;;;;;;4.97;3.50;;;23.00;46.90;;;;;;4995503;28;20026;-13
2022/05/02 09:39:09;;;;;;;5.55;3.10;;;23.40;43.90;;;;;;4996193;28;20373;-14
2022/05/02 09:42:00;;;;;;;4.15;3.42;;;23.70;45.00;;;;;;4995542;28;20429;-14
2022/05/02 09:50:44;;;;;;;3.88;3.20;;;23.70;45.20;;;;;;4995719;28;20133;-13
2022/05/02 09:53:46;;;;;;;4.07;3.50;;;23.60;45.50;;;;;;4995567;28;20029;-12
2022/05/02 09:56:38;;;;;;;6.00;3.40;;;23.60;43.60;;;;;;4995616;28;20022;-12
2022/05/02 09:59:22;;;;;;;4.43;3.25;;;23.70;43.80;;;;;;4995139;28;20026;-13
2022/05/02 10:02:20;;;;;;;4.43;3.60;;;23.80;44.20;;;;;;4995473;28;20140;-14
2022/05/02 10:04:59;;;;;;;5.90;3.47;;;23.60;42.20;;;;;;4995303;28;20482;-13
2022/05/02 10:07:26;;;;;;;3.63;3.00;;;23.40;44.20;;;;;;4995056;28;20066;-13
2022/05/02 10:10:29;;;;;;;5.43;3.50;;;23.40;44.90;;;;;;4993776;28;20120;-13
2022/05/02 10:13:22;;;;;;;4.80;3.40;;;23.40;44.00;;;;;;4994873;28;20026;-13
2022/05/02 10:16:09;;;;;;;4.72;3.50;;;23.20;44.20;;;;;;4994849;28;20121;-13
2022/05/02 10:18:54;;;;;;;5.25;3.63;;;22.90;45.80;;;;;;4994625;28;20398;-13
2022/05/02 10:21:23;;;;;;;3.65;3.15;;;22.90;45.30;;;;;;4995058;28;20030;-13
2022/05/02 10:23:49;;;;;;;6.32;3.38;;;23.10;46.30;;;;;;4994657;28;20042;-13
2022/05/02 10:26:29;;;;;;;4.75;3.20;;;23.40;45.00;;;;;;4994616;28;20026;-12
2022/05/02 10:29:22;;;;;;;3.72;2.90;;;23.60;43.50;;;;;;4994452;28;20413;-13
2022/05/02 10:32:23;;;;;;;3.50;3.20;;;23.40;43.90;;;;;;4994935;28;20038;-13
2022/05/02 10:34:52;;;;;;;3.83;2.55;;;23.40;43.90;;;;;;4994536;28;20024;-13
2022/05/02 10:37:27;;;;;;;4.18;2.95;;;23.30;44.70;;;;;;4994771;28;20030;-13
2022/05/02 10:40:04;;;;;;;4.55;2.90;;;23.30;45.00;;;;;;4994722;28;20477;-13
2022/05/02 10:42:33;;;;;;;3.25;2.75;;;23.30;44.60;;;;;;4994301;28;20026;-13
2022/05/02 10:45:09;;;;;;;4.53;3.20;;;23.40;45.20;;;;;;4994785;28;20030;-14
2022/05/02 10:47:54;;;;;;;2.92;2.50;;;23.60;42.90;;;;;;4994294;28;20389;-13
2022/05/02 10:50:26;;;;;;;5.18;2.97;;;24.00;44.80;;;;;;4994431;28;20486;-14
2022/05/02 10:53:11;;;;;;;3.10;2.88;;;24.50;43.70;;;;;;4994889;28;20031;-14
2022/05/02 10:55:39;;;;;;;2.97;2.60;;;24.90;42.50;;;;;;4994156;28;20112;-14
2022/05/02 10:58:11;;;;;;;2.83;2.63;;;25.30;42.90;;;;;;4994425;28;20041;-14
2022/05/02 11:01:00;;;;;;;2.72;2.50;;;25.70;40.20;;;;;;4993927;28;20085;-13
2022/05/02 11:04:00;;;;;;;4.20;2.65;;;26.00;40.50;;;;;;4994247;28;20053;-14
2022/05/02 11:06:32;;;;;;;4.32;2.42;;;26.00;39.70;;;;;;4994690;28;20030;-14
2022/05/02 11:09:03;;;;;;;4.20;2.65;;;26.40;39.70;;;;;;4994071;28;20023;-14
2022/05/02 11:11:46;;;;;;;3.50;2.55;;;26.80;39.40;;;;;;4993954;28;20049;-14
2022/05/02 11:14:41;;;;;;;5.63;2.55;;;27.10;38.90;;;;;;4993922;28;20113;-13
2022/05/02 11:17:25;;;;;;;5.03;2.40;;;27.50;38.40;;;;;;4994551;28;20030;-13
2022/05/02 11:23:18;;;;;;;3.97;2.65;;;28.30;38.10;;;;;;4994101;28;20470;-14
2022/05/02 11:25:59;;;;;;;3.05;2.75;;;28.60;37.60;;;;;;4993847;28;20109;-14
2022/05/02 11:28:37;;;;;;;5.20;3.40;;;28.30;35.40;;;;;;4993301;28;20477;-14
2022/05/02 11:31:16;;;;;;;3.78;3.20;;;27.60;37.30;;;;;;4993749;28;20497;-13
2022/05/02 11:33:43;;;;;;;6.00;3.45;;;26.50;39.00;;;;;;4993778;28;20034;-14
2022/05/02 11:36:12;;;;;;;4.10;3.40;;;25.50;40.30;;;;;;4993960;28;20113;-14
2022/05/02 11:38:58;;;;;;;4.03;3.10;;;24.80;41.10;;;;;;4993417;28;20402;-13
2022/05/02 11:41:27;;;;;;;5.32;3.45;;;24.40;42.10;;;;;;4994296;28;20113;-14
2022/05/02 11:44:12;;;;;;;4.95;3.60;;;24.40;42.20;;;;;;4993427;28;20038;-13
2022/05/02 11:47:05;;;;;;;3.45;3.00;;;24.90;42.70;;;;;;4993999;28;20023;-13
2022/05/02 11:49:55;;;;;;;3.47;3.17;;;25.60;41.50;;;;;;4993652;28;20031;-14
2022/05/02 11:52:32;;;;;;;3.05;2.70;;;26.20;41.20;;;;;;4993557;28;20057;-14
2022/05/02 11:55:00;;;;;;;6.20;3.38;;;26.60;39.60;;;;;;4992304;28;20049;-14
2022/05/02 11:57:29;;;;;;;4.95;3.50;;;26.90;40.10;;;;;;4993487;28;20035;-14
2022/05/02 12:00:29;;;;;;;4.05;3.30;;;27.30;38.30;;;;;;4993384;28;20077;-13
2022/05/02 12:03:14;;;;;;;3.80;3.25;;;27.50;35.90;;;;;;4993621;28;20022;-13
2022/05/02 12:06:04;;;;;;;2.92;2.60;;;27.00;37.00;;;;;;4993703;28;20129;-14
2022/05/02 12:08:38;;;;;;;3.53;2.80;;;26.80;38.30;;;;;;4993179;28;20486;-14
2022/05/02 12:11:12;;;;;;;7.00;3.38;;;27.20;38.00;;;;;;4993659;28;20026;-14
2022/05/02 12:13:42;;;;;;;4.07;2.90;;;27.40;38.00;;;;;;4993274;28;20113;-13
2022/05/02 12:16:12;;;;;;;5.80;3.08;;;27.90;38.10;;;;;;4993328;28;20027;-13
2022/05/02 12:18:49;;;;;;;4.07;3.47;;;28.50;37.00;;;;;;4993166;28;20046;-13
2022/05/02 12:21:15;;;;;;;3.28;2.70;;;28.90;36.00;;;;;;4993299;28;20022;-15
2022/05/02 12:23:43;;;;;;;3.10;2.60;;;29.60;35.60;;;;;;4993608;28;20081;-16
2022/05/02 12:26:20;;;;;;;2.63;2.42;;;30.00;35.00;;;;;;4993535;28;20034;-14
2022/05/02 12:28:56;;;;;;;2.67;2.40;;;30.30;33.60;;;;;;4993217;28;20054;-14
2022/05/02 12:31:28;;;;;;;3.00;2.70;;;30.80;33.60;;;;;;4993576;28;20040;-14
2022/05/02 12:34:01;;;;;;;3.20;2.50;;;31.40;33.80;;;;;;4993480;28;20025;-14
2022/05/02 12:36:50;;;;;;;2.63;2.42;;;31.60;33.60;;;;;;4995196;28;20018;-14
2022/05/02 12:39:33;;;;;;;2.70;2.40;;;31.90;32.90;;;;;;4997031;28;20037;-14
2022/05/02 12:42:08;;;;;;;4.07;3.00;;;31.90;32.20;;;;;;4996715;28;20041;-14
2022/05/02 12:45:11;;;;;;;3.25;2.95;;;31.20;32.90;;;;;;4996302;28;20478;-14
2022/05/02 12:47:46;;;;;;;2.92;2.35;;;30.10;33.90;;;;;;4996926;28;20030;-15
2022/05/02 12:50:13;;;;;;;2.50;2.30;;;29.20;35.50;;;;;;4996756;28;20390;-13
2022/05/02 12:52:46;;;;;;;3.00;2.70;;;28.50;36.30;;;;;;4996504;28;20060;-13
2022/05/02 12:55:14;;;;;;;4.00;2.45;;;28.40;36.40;;;;;;4996373;28;20026;-13
2022/05/02 13:00:40;;;;;;;4.75;2.70;;;28.80;34.60;;;;;;4996388;28;20049;-15
2022/05/02 13:03:17;;;;;;;4.68;2.78;;;29.00;35.30;;;;;;4996512;28;20037;-14
2022/05/02 13:05:46;;;;;;;3.22;2.85;;;29.00;34.10;;;;;;4996170;28;20034;-14
2022/05/02 13:08:19;;;;;;;6.57;2.92;;;29.10;33.80;;;;;;4996260;28;20501;-14
2022/05/02 13:10:49;;;;;;;5.80;3.05;;;29.20;33.30;;;;;;4996221;28;20310;-15
2022/05/02 13:13:17;;;;;;;4.63;2.60;;;29.10;33.80;;;;;;4996014;28;20125;-14
2022/05/02 13:15:51;;;;;;;3.42;3.00;;;29.20;34.00;;;;;;4996231;28;20026;-14
2022/05/02 13:18:22;;;;;;;4.13;2.85;;;29.40;33.90;;;;;;4995799;28;20037;-14
2022/05/02 13:21:05;;;;;;;5.55;3.03;;;29.10;33.50;;;;;;4996817;28;20023;-15
2022/05/02 13:23:38;;;;;;;5.15;3.10;;;29.30;32.90;;;;;;4996134;28;20386;-14
2022/05/02 13:26:23;;;;;;;3.90;3.17;;;29.50;33.10;;;;;;4996100;28;20490;-14
2022/05/02 13:29:07;;;;;;;4.97;3.10;;;29.70;33.60;;;;;;4995574;28;20458;-14
2022/05/02 13:31:47;;;;;;;5.28;2.90;;;29.50;34.50;;;;;;4995816;28;20034;-13
2022/05/02 13:34:29;;;;;;;5.15;3.30;;;29.50;33.90;;;;;;4995769;28;20450;-15
2022/05/02 13:37:03;;;;;;;4.60;3.15;;;29.70;32.20;;;;;;4996003;28;20035;-15
2022/05/02 13:39:51;;;;;;;3.72;3.20;;;29.60;32.90;;;;;;4995949;28;20030;-16
2022/05/02 13:42:36;;;;;;;3.45;3.15;;;29.10;34.20;;;;;;4995383;28;20034;-14
2022/05/02 13:45:05;;;;;;;4.40;3.33;;;28.90;34.60;;;;;;4995358;28;20026;-14
2022/05/02 13:48:05;;;;;;;4.60;3.20;;;29.00;34.00;;;;;;4995088;28;20034;-14
2022/05/02 13:50:41;;;;;;;5.47;3.67;;;29.00;33.50;;;;;;4958476;28;20050;-13